Stateline, NV (89449)

8:44 AM PST on February 28, 2015 (GMT -0800)
Tahoe Cedar Rock | Change Station
CLOSE
Current Station
Personal Weather Station
Location: Glenbrook, NV
Elevation: 6565 ft
Nearby Weather Stations
Active Advisory: Winter Weather Advisory Active Notice: Local Storm Report

Elev 6565 ft 38.99 °N, 119.94 °W | Updated 1 minute ago

Overcast
Overcast
29.9 °F
Feels Like 30 °F
N
2.0
Wind Variable Wind from SSE
Gusts 6.0 mph

Today
High -- | Low -- °F
--% Chance of Precip.
Yesterday
High -- | Low -- °F
Precip. -- in
6:33 AM 5:51 PM
Waxing Gibbous, 78% visible
Pressure 29.64 in
Visibility 10.0 miles
Clouds Scattered Clouds 6000 ft
Overcast 8000 ft
Windchill 30 °F
Dew Point 26 °F
Humidity 84%
Rainfall 0.00 in
Snow Depth Not available.
UV 0 out of 12
Pollen .70 out of 12
Air Quality Not available.
Flu Activity Not available.
METAR KTVL 281553Z AUTO 19006KT 10SM SCT060 OVC080 M01/M06 A2964 RMK AO2 SLP035 T10061056

More Conditions Fewer Conditions

Pressure 29.64 in
Visibility 10.0 miles
Clouds Scattered Clouds 6000 ft
Overcast 8000 ft
Windchill 30 °F
Dew Point 26 °F
Humidity 84%
Rainfall 0.00 in
Snow Depth Not available.
UV 0 out of 12
Pollen .70 out of 12
Air Quality Not available.
Flu Activity Not available.
METAR KTVL 281553Z AUTO 19006KT 10SM SCT060 OVC080 M01/M06 A2964 RMK AO2 SLP035 T10061056

More Conditions Fewer Conditions

10-Day Weather Forecast

Almanac

Astronomy

Feb. 28, 2015 Rise Set
Actual Time
Civil Twilight
Nautical Twilight
Astronomical Twilight
Moon
Length of Visible Light
Length of Day
Tomorrow will be .
, % of the Moon is Illuminated

Today's Extremes

State Highs State Lows

Community

WunderPhotos

Upload Photos

1,801,081 photos uploaded!

WunderBlogs® & News

Nearby

Air Quality

  Air Quality AQ Index Pollutant
Not available.

Snow Depth

Station Depth Elevation

Earthquake Activity

City Distance Mag. Time & Date
Minimum magnitude displayed is 2.5.

Coastal Water Temperatures

Place Temperature

Nearby Weather Stations

Winter Weather Advisory
Statement as of 7:14 AM PST on February 28, 2015

... Winter Weather Advisory remains in effect until 4 PM PST this
afternoon...

A Winter Weather Advisory for snow remains in effect until 4 PM
PST this afternoon.

* Timing: snow showers will continue through this afternoon...
although many areas around the southern half of Lake Tahoe will
see a break in snow showers this morning.


* Additional snow accumulations: 1 to 3 inches... with 3 to 6
inches possible along and west of Highway 89.

* Impacts: snow will create slick and icy roads through the
morning. This includes Interstate 80... and highways 50... 89...
88... 431... and 267.

Precautionary/preparedness actions...

Snow is expected to pose an inconvenience to travelers. Roads
will become slick and hazardous... with snow and ice first
developing on bridges and overpasses. Motorists should slow down
and use caution. Check our website at weather.Gov/Reno or listen
to NOAA Weather Radio for updates on this situation.